Flight Track Log - Related Links

Times and Time Zones

All times are in EDT time to prevent confusion due to time zone crossing. See the N273SK flight status page for this flight to view local times or setup timezone preferences in your user account.

Time Position Orientation Groundspeed Altitude Reporting Facility
EDT Latitude Longitude Course Direction KTS MPH feet Rate Location/Type
Sat 02:05:23 PM 42.2056 -83.3536 215° Southwest 151 174 1,300  Level FAA TRACON SMA TRACON (SMA)
Sat 02:05:43 PM 42.1928 -83.3658 215° Southwest 158 182 2,100 1,800 Climbing FAA TRACON SMA TRACON (SMA)
Sat 02:06:03 PM 42.1817 -83.3767 216° Southwest 183 211 2,500 1,650 Climbing FAA TRACON SMA TRACON (SMA)
Sat 02:06:23 PM 42.1658 -83.3914 215° Southwest 201 231 3,200 2,700 Climbing FAA TRACON SMA TRACON (SMA)
Sat 02:06:43 PM 42.1478 -83.4086 215° Southwest 212 244 4,300 2,850 Climbing FAA TRACON SMA TRACON (SMA)
Sat 02:07:03 PM 42.1328 -83.4225 214° Southwest 207 238 5,100 2,550 Climbing FAA TRACON SMA TRACON (SMA)
Sat 02:07:23 PM 42.1153 -83.4386 214° Southwest 220 253 6,000 2,550 Climbing FAA TRACON SMA TRACON (SMA)
Sat 02:07:43 PM 42.1000 -83.4528 215° Southwest 222 255 6,800 2,250 Climbing FAA TRACON SMA TRACON (SMA)
Sat 02:08:03 PM 42.0794 -83.4583 191° South 245 282 7,500 2,250 Climbing FAA TRACON SMA TRACON (SMA)
Sat 02:08:23 PM 42.0561 -83.4556 175° South 254 292 8,300 2,100 Climbing FAA TRACON SMA TRACON (SMA)
Sat 02:08:43 PM 42.0294 -83.4472 167° South 271 312 8,900 1,950 Climbing FAA TRACON SMA TRACON (SMA)
Sat 02:09:03 PM 42.0025 -83.4397 168° South 279 321 9,600 2,250 Climbing FAA TRACON SMA TRACON (SMA)
Sat 02:09:23 PM 41.9814 -83.4333 167° South 281 323 10,400 1,800 Climbing FAA TRACON SMA TRACON (SMA)
Sat 02:09:43 PM 41.9578 -83.4256 166° South 281 323 10,800 1,500 Climbing FAA TRACON SMA TRACON (SMA)
Sat 02:10:03 PM 41.9289 -83.4167 167° South 288 331 11,400 1,650 Climbing FAA TRACON SMA TRACON (SMA)
Sat 02:10:23 PM 41.9017 -83.4083 167° South 300 345 11,900 1,650 Climbing FAA TRACON SMA TRACON (SMA)
Sat 02:10:43 PM 41.8681 -83.3989 168° South 313 360 12,500 1,463 Climbing FAA TRACON SMA TRACON (SMA)
Sat 02:11:04 PM 41.8428 -83.3914 168° South 320 368 12,900 1,610 Climbing FAA TRACON SMA TRACON (SMA)
Sat 02:11:24 PM 41.8125 -83.3861 173° South 322 371 13,600 2,250 Climbing FAA TRACON SMA TRACON (SMA)
Sat 02:11:44 PM 41.7803 -83.3953 192° South 305 351 14,400 1,950 Climbing FAA TRACON SMA TRACON (SMA)
Sat 02:12:04 PM 41.7575 -83.4053 198° South 308 354 14,900 1,650 Climbing FAA TRACON SMA TRACON (SMA)
Sat 02:12:24 PM 41.7300 -83.4172 198° South 308 354 15,500 1,950 Climbing FAA TRACON SMA TRACON (SMA)
Sat 02:12:44 PM 41.6983 -83.4314 198° South 309 356 16,200 2,000 Climbing FAA TRACON SMA TRACON (SMA)
Sat 02:13:03 PM 41.6764 -83.4406 197° South 309 356 16,800 1,846 Climbing FAA TRACON SMA TRACON (SMA)
Sat 02:13:23 PM 41.6483 -83.4533 199° South 307 353 17,400 1,350 Climbing FAA TRACON SMA TRACON (SMA)
Sat 02:13:43 PM 41.6236 -83.4647 199° South 307 353 17,700 1,500 Climbing FAA TRACON SMA TRACON (SMA)
Sat 02:14:03 PM 41.5944 -83.4764 197° South 305 351 18,400 2,100 Climbing FAA TRACON SMA TRACON (SMA)
Sat 02:14:23 PM 41.5681 -83.4889 200° South 303 349 19,100 1,650 Climbing FAA TRACON SMA TRACON (SMA)
Sat 02:14:43 PM 41.5439 -83.5006 200° South 302 348 19,500 1,500 Climbing FAA TRACON SMA TRACON (SMA)
Sat 02:15:03 PM 41.5164 -83.5114 196° South 303 349 20,100 1,650 Climbing FAA TRACON SMA TRACON (SMA)
Sat 02:15:23 PM 41.4881 -83.5256 201° Southwest 305 351 20,600 1,350 Climbing FAA TRACON SMA TRACON (SMA)
Sat 02:15:43 PM 41.4625 -83.5369 198° South 309 356 21,000 1,350 Climbing FAA TRACON SMA TRACON (SMA)
Sat 02:16:03 PM 41.4325 -83.5481 196° South 311 358 21,500 1,500 Climbing FAA TRACON SMA TRACON (SMA)
Sat 02:16:23 PM 41.4047 -83.5622 201° Southwest 315 362 22,000 1,500 Climbing FAA TRACON SMA TRACON (SMA)
Sat 02:16:43 PM 41.3786 -83.5725 196° South 317 365 22,500 1,500 Climbing FAA TRACON SMA TRACON (SMA)
Sat 02:17:03 PM 41.3525 -83.5831 197° South 318 366 23,000 811 Climbing FAA TRACON SMA TRACON (SMA)
Sat 02:18:34 PM 41.2272 -83.6506 202° Southwest 342 394 24,000 395 Climbing Indianapolis Center
Sat 02:19:35 PM 41.1542 -83.7222 216° Southwest 327 376 24,000  Level Indianapolis Center
Sat 02:20:37 PM 41.0742 -83.7806 209° Southwest 334 384 24,000  Level Indianapolis Center
Sat 02:21:38 PM 40.9650 -83.8186 195° South 355 409 24,000  Level Indianapolis Center
Sat 02:22:40 PM 40.8708 -83.8492 194° South 348 400 24,000  Level Indianapolis Center
Sat 02:23:41 PM 40.7756 -83.8803 194° South 351 404 24,000  Level Indianapolis Center
Sat 02:24:43 PM 40.6789 -83.9119 194° South 354 407 24,000  Level Indianapolis Center
Sat 02:25:44 PM 40.5831 -83.9450 195° South 355 409 24,000  Level Indianapolis Center
Sat 02:26:46 PM 40.4858 -83.9772 194° South 358 412 24,000  Level Indianapolis Center
Sat 02:27:47 PM 40.3900 -84.0086 194° South 355 409 24,000  Level Indianapolis Center
Sat 02:28:49 PM 40.2919 -84.0406 194° South 359 413 24,000  Level Indianapolis Center
Sat 02:29:50 PM 40.2025 -84.0875 202° Southwest 346 398 24,000  Level Indianapolis Center
Sat 02:30:52 PM 40.0969 -84.1436 202° Southwest 348 400 24,000 -195 Level Indianapolis Center
Sat 02:31:53 PM 40.0061 -84.1908 202° Southwest 351 404 23,600 -683 Descending Indianapolis Center
Sat 02:32:55 PM 39.9106 -84.2431 197° South 366 421 22,600 -780 Descending Indianapolis Center
Sat 02:33:00 PM 39.9107 -84.2291 197° South  Level FlightAware Approximate
Sat 02:33:56 PM 39.8061 -84.2972 202° Southwest 397 457 22,000  Level Indianapolis Center
Sat 02:34:58 PM 39.7039 -84.3483 201° Southwest 393 452 22,000  Level Indianapolis Center
Sat 02:35:59 PM 39.6086 -84.3989 202° Southwest 373 429 22,000  Level Indianapolis Center
Sat 02:37:01 PM 39.5161 -84.4469 202° Southwest 360 414 22,000 -341 Level Indianapolis Center
Sat 02:38:02 PM 39.4219 -84.4947 201° Southwest 360 414 21,300 -1,131 Descending Indianapolis Center
Sat 02:39:03 PM 39.3314 -84.5425 202° Southwest 353 406 19,700 -1,512 Descending Indianapolis Center
Sat 02:40:05 PM 39.2467 -84.5850 201° Southwest 332 382 18,200 -1,317 Descending Indianapolis Center
Sat 02:41:06 PM 39.1619 -84.6281 202° Southwest 325 374 17,000 -1,364 Descending Indianapolis Center
Sat 02:41:33 PM 39.1167 -84.6500 201° Southwest 320 368 16,200 -1,655 Descending Cincinnati TRACON
Sat 02:42:33 PM 39.0333 -84.6833 197° South 322 371 14,600 -1,526 Descending Cincinnati TRACON
Sat 02:43:27 PM 38.9667 -84.7500 218° Southwest 302 348 13,300 -1,529 Descending Cincinnati TRACON
Sat 02:44:15 PM 38.9000 -84.7667 191° South 323 372 12,000 -1,486 Descending Cincinnati TRACON
Sat 02:45:12 PM 38.8194 -84.7606 177° South 326 375 10,700 -1,008 Descending Indianapolis Center
Sat 02:46:14 PM 38.7328 -84.7433 171° South 316 364 10,000 -341 Descending Indianapolis Center
Sat 02:47:15 PM 38.6514 -84.7278 172° South 299 344 10,000  Level Indianapolis Center
Sat 02:48:16 PM 38.5694 -84.7122 172° South 298 343 10,000  Level Indianapolis Center
Sat 02:49:18 PM 38.4761 -84.6936 171° South 292 336 10,000 -244 Level Indianapolis Center
Sat 02:50:19 PM 38.3972 -84.6792 172° South 287 330 9,500 -1,122 Descending Indianapolis Center
Sat 02:51:21 PM 38.3219 -84.6578 167° South 279 321 7,700 -1,805 Descending Indianapolis Center
Sat 02:52:22 PM 38.2733 -84.5831 130° Southeast 273 314 5,800 -1,805 Descending Indianapolis Center
Sat 02:53:24 PM 38.2206 -84.5197 137° Southeast 265 305 4,000 -878 Descending Indianapolis Center
Sat 02:54:25 PM 38.1736 -84.4686 139° Southeast 240 276 4,000  Level Indianapolis Center

Login

Don't have an account? Register now (free) for customized features, flight alerts, and more!